sensor_id;sensor_type;location;lat;lon;timestamp;pressure;altitude;pressure_sealevel;temperature;humidity
70338;BME280;57757;53.198;19.646;2023-04-25T00:00:57;98891.48;;;12.66;56.04
70338;BME280;57757;53.198;19.646;2023-04-25T00:03:25;98891.65;;;12.63;56.16
70338;BME280;57757;53.198;19.646;2023-04-25T00:05:53;98887.42;;;12.61;56.20
70338;BME280;57757;53.198;19.646;2023-04-25T00:08:21;98890.17;;;12.58;56.25
70338;BME280;57757;53.198;19.646;2023-04-25T00:10:48;98888.39;;;12.56;56.48
70338;BME280;57757;53.198;19.646;2023-04-25T00:13:16;98884.27;;;12.54;56.45
70338;BME280;57757;53.198;19.646;2023-04-25T00:15:45;98881.67;;;12.54;56.66
70338;BME280;57757;53.198;19.646;2023-04-25T00:18:14;98880.18;;;12.53;56.67
70338;BME280;57757;53.198;19.646;2023-04-25T00:20:42;98869.09;;;12.51;56.83
70338;BME280;57757;53.198;19.646;2023-04-25T00:23:17;98869.14;;;12.51;56.83
70338;BME280;57757;53.198;19.646;2023-04-25T00:25:47;98877.14;;;12.51;56.88
70338;BME280;57757;53.198;19.646;2023-04-25T00:28:16;98874.90;;;12.50;57.05
70338;BME280;57757;53.198;19.646;2023-04-25T00:30:43;98873.73;;;12.49;57.17
70338;BME280;57757;53.198;19.646;2023-04-25T00:33:11;98870.06;;;12.49;57.21
70338;BME280;57757;53.198;19.646;2023-04-25T00:35:38;98865.73;;;12.49;57.19
70338;BME280;57757;53.198;19.646;2023-04-25T00:38:06;98862.99;;;12.48;57.14
70338;BME280;57757;53.198;19.646;2023-04-25T00:40:34;98864.07;;;12.47;57.31
70338;BME280;57757;53.198;19.646;2023-04-25T00:43:02;98863.66;;;12.49;57.49
70338;BME280;57757;53.198;19.646;2023-04-25T00:45:30;98865.27;;;12.48;57.48
70338;BME280;57757;53.198;19.646;2023-04-25T00:47:58;98863.63;;;12.46;57.60
70338;BME280;57757;53.198;19.646;2023-04-25T00:50:26;98864.46;;;12.46;57.62
70338;BME280;57757;53.198;19.646;2023-04-25T00:52:53;98866.31;;;12.48;57.64
70338;BME280;57757;53.198;19.646;2023-04-25T00:55:21;98866.34;;;12.48;57.72
70338;BME280;57757;53.198;19.646;2023-04-25T00:57:50;98861.02;;;12.46;57.67
70338;BME280;57757;53.198;19.646;2023-04-25T01:00:20;98863.81;;;12.45;57.94
70338;BME280;57757;53.198;19.646;2023-04-25T01:02:48;98865.60;;;12.45;57.90
70338;BME280;57757;53.198;19.646;2023-04-25T01:05:17;98865.63;;;12.44;57.97
70338;BME280;57757;53.198;19.646;2023-04-25T01:07:46;98866.37;;;12.43;58.01
70338;BME280;57757;53.198;19.646;2023-04-25T01:10:14;98866.63;;;12.41;57.96
70338;BME280;57757;53.198;19.646;2023-04-25T01:12:42;98865.84;;;12.40;58.06
70338;BME280;57757;53.198;19.646;2023-04-25T01:15:10;98866.61;;;12.39;58.02
70338;BME280;57757;53.198;19.646;2023-04-25T01:17:38;98868.45;;;12.37;58.14
70338;BME280;57757;53.198;19.646;2023-04-25T01:20:07;98865.59;;;12.35;58.31
70338;BME280;57757;53.198;19.646;2023-04-25T01:22:37;98863.27;;;12.32;58.29
70338;BME280;57757;53.198;19.646;2023-04-25T01:25:06;98859.35;;;12.31;58.33
70338;BME280;57757;53.198;19.646;2023-04-25T01:27:37;98854.23;;;12.29;58.49
70338;BME280;57757;53.198;19.646;2023-04-25T01:30:05;98852.50;;;12.29;58.52
70338;BME280;57757;53.198;19.646;2023-04-25T01:32:33;98852.34;;;12.28;58.50
70338;BME280;57757;53.198;19.646;2023-04-25T01:35:09;98851.18;;;12.27;58.72
70338;BME280;57757;53.198;19.646;2023-04-25T01:37:38;98852.92;;;12.27;58.60
70338;BME280;57757;53.198;19.646;2023-04-25T01:40:09;98854.41;;;12.25;58.65
70338;BME280;57757;53.198;19.646;2023-04-25T01:42:40;98856.09;;;12.23;58.71
70338;BME280;57757;53.198;19.646;2023-04-25T01:45:10;98855.45;;;12.22;58.71
70338;BME280;57757;53.198;19.646;2023-04-25T01:47:39;98861.26;;;12.21;58.84
70338;BME280;57757;53.198;19.646;2023-04-25T01:50:08;98860.15;;;12.22;58.95
70338;BME280;57757;53.198;19.646;2023-04-25T01:52:45;98861.63;;;12.24;59.06
70338;BME280;57757;53.198;19.646;2023-04-25T01:55:12;98865.74;;;12.25;59.01
70338;BME280;57757;53.198;19.646;2023-04-25T01:57:40;98869.42;;;12.25;59.10
70338;BME280;57757;53.198;19.646;2023-04-25T02:00:08;98872.27;;;12.23;59.13
70338;BME280;57757;53.198;19.646;2023-04-25T02:02:36;98867.77;;;12.23;59.23
70338;BME280;57757;53.198;19.646;2023-04-25T02:05:05;98871.91;;;12.23;59.21
70338;BME280;57757;53.198;19.646;2023-04-25T02:07:33;98876.75;;;12.25;59.29
70338;BME280;57757;53.198;19.646;2023-04-25T02:10:00;98878.98;;;12.26;59.15
70338;BME280;57757;53.198;19.646;2023-04-25T02:12:28;98880.91;;;12.25;59.28
70338;BME280;57757;53.198;19.646;2023-04-25T02:14:56;98881.40;;;12.26;59.30
70338;BME280;57757;53.198;19.646;2023-04-25T02:17:23;98881.66;;;12.24;59.36
70338;BME280;57757;53.198;19.646;2023-04-25T02:19:51;98881.97;;;12.22;59.42
70338;BME280;57757;53.198;19.646;2023-04-25T02:22:19;98883.01;;;12.22;59.37
70338;BME280;57757;53.198;19.646;2023-04-25T02:24:46;98885.83;;;12.21;59.34
70338;BME280;57757;53.198;19.646;2023-04-25T02:27:14;98884.16;;;12.20;59.35
70338;BME280;57757;53.198;19.646;2023-04-25T02:29:42;98884.91;;;12.15;59.41
70338;BME280;57757;53.198;19.646;2023-04-25T02:32:09;98879.90;;;12.11;59.33
70338;BME280;57757;53.198;19.646;2023-04-25T02:34:37;98876.98;;;12.06;59.44
70338;BME280;57757;53.198;19.646;2023-04-25T02:37:04;98876.34;;;12.02;59.52
70338;BME280;57757;53.198;19.646;2023-04-25T02:39:32;98875.04;;;12.00;59.65
70338;BME280;57757;53.198;19.646;2023-04-25T02:42:00;98872.88;;;11.98;59.68
70338;BME280;57757;53.198;19.646;2023-04-25T02:44:28;98875.08;;;11.95;59.71
70338;BME280;57757;53.198;19.646;2023-04-25T02:46:55;98873.41;;;11.94;59.75
70338;BME280;57757;53.198;19.646;2023-04-25T02:49:23;98874.18;;;11.92;59.85
70338;BME280;57757;53.198;19.646;2023-04-25T02:51:51;98870.81;;;11.87;59.74
70338;BME280;57757;53.198;19.646;2023-04-25T02:54:18;98874.98;;;11.84;59.98
70338;BME280;57757;53.198;19.646;2023-04-25T02:56:46;98870.29;;;11.80;59.96
70338;BME280;57757;53.198;19.646;2023-04-25T02:59:13;98869.02;;;11.77;59.96
70338;BME280;57757;53.198;19.646;2023-04-25T03:01:41;98873.02;;;11.74;60.04
70338;BME280;57757;53.198;19.646;2023-04-25T03:04:08;98871.05;;;11.72;60.10
70338;BME280;57757;53.198;19.646;2023-04-25T03:06:36;98874.27;;;11.69;60.21
70338;BME280;57757;53.198;19.646;2023-04-25T03:09:04;98874.88;;;11.67;60.16
70338;BME280;57757;53.198;19.646;2023-04-25T03:11:31;98873.11;;;11.64;60.28
70338;BME280;57757;53.198;19.646;2023-04-25T03:13:59;98872.50;;;11.63;60.38
70338;BME280;57757;53.198;19.646;2023-04-25T03:16:26;98871.73;;;11.61;60.45
70338;BME280;57757;53.198;19.646;2023-04-25T03:18:54;98869.64;;;11.57;60.43
70338;BME280;57757;53.198;19.646;2023-04-25T03:21:22;98866.66;;;11.54;60.50
70338;BME280;57757;53.198;19.646;2023-04-25T03:23:50;98870.58;;;11.52;60.60
70338;BME280;57757;53.198;19.646;2023-04-25T03:26:18;98865.05;;;11.51;60.47
70338;BME280;57757;53.198;19.646;2023-04-25T03:28:45;98866.05;;;11.49;60.55
70338;BME280;57757;53.198;19.646;2023-04-25T03:31:13;98865.28;;;11.46;60.63
70338;BME280;57757;53.198;19.646;2023-04-25T03:33:41;98865.92;;;11.44;60.70
70338;BME280;57757;53.198;19.646;2023-04-25T03:36:08;98867.60;;;11.42;60.71
70338;BME280;57757;53.198;19.646;2023-04-25T03:38:37;98864.38;;;11.40;60.73
70338;BME280;57757;53.198;19.646;2023-04-25T03:41:04;98869.33;;;11.38;60.87
70338;BME280;57757;53.198;19.646;2023-04-25T03:43:32;98870.10;;;11.36;60.98
70338;BME280;57757;53.198;19.646;2023-04-25T03:46:00;98870.59;;;11.34;60.89
70338;BME280;57757;53.198;19.646;2023-04-25T03:48:28;98873.15;;;11.31;60.94
70338;BME280;57757;53.198;19.646;2023-04-25T03:50:56;98872.88;;;11.29;60.96
70338;BME280;57757;53.198;19.646;2023-04-25T03:53:24;98876.67;;;11.27;60.99
70338;BME280;57757;53.198;19.646;2023-04-25T03:55:52;98876.02;;;11.22;61.09
70338;BME280;57757;53.198;19.646;2023-04-25T03:58:19;98876.98;;;11.20;61.19
70338;BME280;57757;53.198;19.646;2023-04-25T04:00:47;98882.79;;;11.19;61.21
70338;BME280;57757;53.198;19.646;2023-04-25T04:03:14;98889.36;;;11.16;61.14
70338;BME280;57757;53.198;19.646;2023-04-25T04:05:42;98888.85;;;11.12;61.15
70338;BME280;57757;53.198;19.646;2023-04-25T04:08:10;98888.34;;;11.08;61.01
70338;BME280;57757;53.198;19.646;2023-04-25T04:10:38;98893.02;;;11.04;60.99
70338;BME280;57757;53.198;19.646;2023-04-25T04:13:05;98893.48;;;11.02;61.05
70338;BME280;57757;53.198;19.646;2023-04-25T04:15:33;98895.05;;;10.98;61.08
70338;BME280;57757;53.198;19.646;2023-04-25T04:18:00;98895.46;;;10.92;61.01
70338;BME280;57757;53.198;19.646;2023-04-25T04:20:30;98899.52;;;10.87;61.11
70338;BME280;57757;53.198;19.646;2023-04-25T04:22:58;98900.27;;;10.82;61.31
70338;BME280;57757;53.198;19.646;2023-04-25T04:25:26;98904.65;;;10.78;61.25
70338;BME280;57757;53.198;19.646;2023-04-25T04:27:53;98906.44;;;10.73;61.18
70338;BME280;57757;53.198;19.646;2023-04-25T04:30:23;98911.17;;;10.68;61.28
70338;BME280;57757;53.198;19.646;2023-04-25T04:32:52;98912.78;;;10.59;61.21
70338;BME280;57757;53.198;19.646;2023-04-25T04:35:20;98917.51;;;10.51;61.16
70338;BME280;57757;53.198;19.646;2023-04-25T04:37:48;98915.83;;;10.37;61.26
70338;BME280;57757;53.198;19.646;2023-04-25T04:40:17;98924.20;;;10.29;61.37
70338;BME280;57757;53.198;19.646;2023-04-25T04:42:46;98923.05;;;10.23;61.39
70338;BME280;57757;53.198;19.646;2023-04-25T04:45:15;98925.60;;;10.20;61.48
70338;BME280;57757;53.198;19.646;2023-04-25T04:47:43;98926.80;;;10.16;61.48
70338;BME280;57757;53.198;19.646;2023-04-25T04:50:12;98930.50;;;10.10;61.51
70338;BME280;57757;53.198;19.646;2023-04-25T04:52:40;98924.64;;;10.04;61.56
70338;BME280;57757;53.198;19.646;2023-04-25T04:55:07;98931.60;;;10.00;61.62
70338;BME280;57757;53.198;19.646;2023-04-25T04:57:35;98934.28;;;9.98;61.65
70338;BME280;57757;53.198;19.646;2023-04-25T05:00:05;98929.58;;;9.94;61.75
70338;BME280;57757;53.198;19.646;2023-04-25T05:02:38;98931.19;;;9.89;61.76
70338;BME280;57757;53.198;19.646;2023-04-25T05:05:07;98932.30;;;9.87;61.86
70338;BME280;57757;53.198;19.646;2023-04-25T05:07:36;98933.81;;;9.88;62.03
70338;BME280;57757;53.198;19.646;2023-04-25T05:10:04;98936.88;;;9.90;62.08
70338;BME280;57757;53.198;19.646;2023-04-25T05:12:32;98940.42;;;9.88;61.99
70338;BME280;57757;53.198;19.646;2023-04-25T05:15:01;98936.76;;;9.84;61.80
70338;BME280;57757;53.198;19.646;2023-04-25T05:17:30;98934.06;;;9.82;61.93
70338;BME280;57757;53.198;19.646;2023-04-25T05:19:59;98928.77;;;9.80;61.90
70338;BME280;57757;53.198;19.646;2023-04-25T05:22:27;98934.28;;;9.81;61.98
70338;BME280;57757;53.198;19.646;2023-04-25T05:24:55;98936.25;;;9.84;62.14
70338;BME280;57757;53.198;19.646;2023-04-25T05:27:30;98936.34;;;9.86;61.97
70338;BME280;57757;53.198;19.646;2023-04-25T05:29:58;98939.05;;;9.87;62.05
70338;BME280;57757;53.198;19.646;2023-04-25T05:32:26;98941.52;;;9.91;62.08
70338;BME280;57757;53.198;19.646;2023-04-25T05:34:54;98940.73;;;9.93;62.12
70338;BME280;57757;53.198;19.646;2023-04-25T05:37:21;98940.31;;;9.95;62.16
70338;BME280;57757;53.198;19.646;2023-04-25T05:39:52;98939.69;;;9.97;62.17
70338;BME280;57757;53.198;19.646;2023-04-25T05:42:21;98942.73;;;9.99;62.23
70338;BME280;57757;53.198;19.646;2023-04-25T05:44:48;98944.73;;;10.01;62.24
70338;BME280;57757;53.198;19.646;2023-04-25T05:47:16;98946.07;;;10.03;62.20
70338;BME280;57757;53.198;19.646;2023-04-25T05:49:44;98948.10;;;10.04;62.26
70338;BME280;57757;53.198;19.646;2023-04-25T05:52:12;98954.72;;;10.04;62.13
70338;BME280;57757;53.198;19.646;2023-04-25T05:54:41;98954.50;;;10.00;62.03
70338;BME280;57757;53.198;19.646;2023-04-25T05:57:29;98954.14;;;10.01;62.13
70338;BME280;57757;53.198;19.646;2023-04-25T05:59:59;98960.80;;;9.99;61.93
70338;BME280;57757;53.198;19.646;2023-04-25T06:02:34;98964.17;;;9.98;62.12
70338;BME280;57757;53.198;19.646;2023-04-25T06:05:07;98969.33;;;9.99;62.14
70338;BME280;57757;53.198;19.646;2023-04-25T06:07:38;98970.24;;;9.98;62.05
70338;BME280;57757;53.198;19.646;2023-04-25T06:10:07;98975.84;;;9.96;61.97
70338;BME280;57757;53.198;19.646;2023-04-25T06:12:35;98981.27;;;9.92;61.96
70338;BME280;57757;53.198;19.646;2023-04-25T06:15:05;98980.27;;;9.86;61.96
70338;BME280;57757;53.198;19.646;2023-04-25T06:17:52;98983.27;;;9.81;61.86
70338;BME280;57757;53.198;19.646;2023-04-25T06:20:20;98982.56;;;9.77;61.97
70338;BME280;57757;53.198;19.646;2023-04-25T06:22:51;98980.71;;;9.75;61.87
70338;BME280;57757;53.198;19.646;2023-04-25T06:25:19;98989.38;;;9.75;62.09
70338;BME280;57757;53.198;19.646;2023-04-25T06:27:48;98986.04;;;9.77;62.09
70338;BME280;57757;53.198;19.646;2023-04-25T06:30:16;98992.98;;;9.77;62.04
70338;BME280;57757;53.198;19.646;2023-04-25T06:32:45;98993.70;;;9.76;61.99
70338;BME280;57757;53.198;19.646;2023-04-25T06:35:13;98990.29;;;9.74;62.04
70338;BME280;57757;53.198;19.646;2023-04-25T06:37:41;98987.71;;;9.74;62.05
70338;BME280;57757;53.198;19.646;2023-04-25T06:40:09;98985.70;;;9.76;62.06
70338;BME280;57757;53.198;19.646;2023-04-25T06:42:36;98984.25;;;9.78;62.01
70338;BME280;57757;53.198;19.646;2023-04-25T06:45:07;98985.61;;;9.87;62.40
70338;BME280;57757;53.198;19.646;2023-04-25T06:47:35;98985.83;;;9.94;62.13
70338;BME280;57757;53.198;19.646;2023-04-25T06:50:03;98988.65;;;9.98;62.13
70338;BME280;57757;53.198;19.646;2023-04-25T06:52:31;98987.63;;;10.01;61.89
70338;BME280;57757;53.198;19.646;2023-04-25T06:54:58;98988.94;;;10.03;61.83
70338;BME280;57757;53.198;19.646;2023-04-25T06:57:26;98992.52;;;10.05;62.01
70338;BME280;57757;53.198;19.646;2023-04-25T06:59:54;98991.11;;;10.06;61.84
70338;BME280;57757;53.198;19.646;2023-04-25T07:02:21;98994.83;;;10.04;61.83
70338;BME280;57757;53.198;19.646;2023-04-25T07:04:55;99001.44;;;9.99;61.64
70338;BME280;57757;53.198;19.646;2023-04-25T07:07:27;99002.33;;;9.94;61.43
70338;BME280;57757;53.198;19.646;2023-04-25T07:09:54;99011.86;;;9.91;61.41
70338;BME280;57757;53.198;19.646;2023-04-25T07:12:22;99011.57;;;9.89;61.36
70338;BME280;57757;53.198;19.646;2023-04-25T07:14:50;99012.77;;;9.85;61.26
70338;BME280;57757;53.198;19.646;2023-04-25T07:17:17;99015.47;;;9.83;61.22
70338;BME280;57757;53.198;19.646;2023-04-25T07:19:45;99011.97;;;9.79;61.33
70338;BME280;57757;53.198;19.646;2023-04-25T07:22:12;99015.22;;;9.80;61.45
70338;BME280;57757;53.198;19.646;2023-04-25T07:24:41;99025.30;;;9.85;61.38
70338;BME280;57757;53.198;19.646;2023-04-25T07:27:08;99022.05;;;9.88;61.29
70338;BME280;57757;53.198;19.646;2023-04-25T07:29:36;99021.94;;;9.95;61.35
70338;BME280;57757;53.198;19.646;2023-04-25T07:32:04;99022.54;;;10.02;61.32
70338;BME280;57757;53.198;19.646;2023-04-25T07:34:32;99025.27;;;10.13;61.19
70338;BME280;57757;53.198;19.646;2023-04-25T07:37:00;99029.55;;;10.19;61.19
70338;BME280;57757;53.198;19.646;2023-04-25T07:39:27;99028.90;;;10.26;61.07
70338;BME280;57757;53.198;19.646;2023-04-25T07:41:55;99030.08;;;10.31;61.05
70338;BME280;57757;53.198;19.646;2023-04-25T07:44:23;99035.99;;;10.35;60.96
70338;BME280;57757;53.198;19.646;2023-04-25T07:46:51;99038.54;;;10.41;60.88
70338;BME280;57757;53.198;19.646;2023-04-25T07:49:19;99043.52;;;10.46;61.11
70338;BME280;57757;53.198;19.646;2023-04-25T07:51:47;99038.80;;;10.68;62.27
70338;BME280;57757;53.198;19.646;2023-04-25T07:54:17;99039.04;;;10.99;61.63
70338;BME280;57757;53.198;19.646;2023-04-25T07:56:46;99042.20;;;11.07;60.80
70338;BME280;57757;53.198;19.646;2023-04-25T07:59:20;99046.61;;;11.04;60.46
70338;BME280;57757;53.198;19.646;2023-04-25T08:01:48;99043.46;;;11.13;60.97
70338;BME280;57757;53.198;19.646;2023-04-25T08:04:17;99043.17;;;11.35;60.96
70338;BME280;57757;53.198;19.646;2023-04-25T08:06:45;99046.48;;;11.47;60.55
70338;BME280;57757;53.198;19.646;2023-04-25T08:09:13;99047.08;;;11.53;60.25
70338;BME280;57757;53.198;19.646;2023-04-25T08:11:41;99046.52;;;11.54;60.18
70338;BME280;57757;53.198;19.646;2023-04-25T08:14:09;99046.83;;;11.55;60.09
70338;BME280;57757;53.198;19.646;2023-04-25T08:16:37;99046.59;;;11.60;60.09
70338;BME280;57757;53.198;19.646;2023-04-25T08:19:05;99044.58;;;11.62;59.89
70338;BME280;57757;53.198;19.646;2023-04-25T08:21:33;99046.27;;;11.63;59.93
70338;BME280;57757;53.198;19.646;2023-04-25T08:24:00;99052.95;;;11.65;59.82
70338;BME280;57757;53.198;19.646;2023-04-25T08:26:30;99054.22;;;11.64;59.73
70338;BME280;57757;53.198;19.646;2023-04-25T08:28:58;99052.09;;;11.65;59.68
70338;BME280;57757;53.198;19.646;2023-04-25T08:31:28;99056.42;;;11.69;59.62
70338;BME280;57757;53.198;19.646;2023-04-25T08:33:56;99056.12;;;11.73;59.59
70338;BME280;57757;53.198;19.646;2023-04-25T08:36:25;99056.95;;;11.74;59.58
70338;BME280;57757;53.198;19.646;2023-04-25T08:39:06;99060.72;;;11.71;59.59
70338;BME280;57757;53.198;19.646;2023-04-25T08:41:36;99063.98;;;11.68;59.75
70338;BME280;57757;53.198;19.646;2023-04-25T08:44:05;99065.45;;;11.63;59.53
70338;BME280;57757;53.198;19.646;2023-04-25T08:46:38;99060.79;;;11.57;59.54
70338;BME280;57757;53.198;19.646;2023-04-25T08:49:08;99062.77;;;11.52;59.36
70338;BME280;57757;53.198;19.646;2023-04-25T08:51:45;99061.09;;;11.51;59.58
70338;BME280;57757;53.198;19.646;2023-04-25T08:54:15;99064.23;;;11.51;59.51
70338;BME280;57757;53.198;19.646;2023-04-25T08:57:02;99069.91;;;11.41;59.40
70338;BME280;57757;53.198;19.646;2023-04-25T08:59:32;99076.45;;;11.31;59.47
70338;BME280;57757;53.198;19.646;2023-04-25T09:02:05;99074.88;;;11.27;59.50
70338;BME280;57757;53.198;19.646;2023-04-25T09:04:36;99084.10;;;11.35;59.59
70338;BME280;57757;53.198;19.646;2023-04-25T09:07:16;99083.88;;;11.47;59.49
70338;BME280;57757;53.198;19.646;2023-04-25T09:09:46;99084.09;;;11.62;59.67
70338;BME280;57757;53.198;19.646;2023-04-25T09:12:20;99088.33;;;11.73;59.56
70338;BME280;57757;53.198;19.646;2023-04-25T09:17:31;99091.05;;;11.78;59.19
70338;BME280;57757;53.198;19.646;2023-04-25T09:20:08;99098.18;;;11.78;59.05
70338;BME280;57757;53.198;19.646;2023-04-25T09:22:36;99091.52;;;11.79;59.05
70338;BME280;57757;53.198;19.646;2023-04-25T09:25:12;99095.53;;;11.87;59.03
70338;BME280;57757;53.198;19.646;2023-04-25T09:27:59;99093.86;;;12.00;59.24
70338;BME280;57757;53.198;19.646;2023-04-25T09:30:33;99093.24;;;12.21;59.14
70338;BME280;57757;53.198;19.646;2023-04-25T09:33:10;99093.23;;;12.39;59.11
70338;BME280;57757;53.198;19.646;2023-04-25T09:35:43;99094.11;;;12.57;58.95
70338;BME280;57757;53.198;19.646;2023-04-25T09:38:12;99095.64;;;12.72;58.90
70338;BME280;57757;53.198;19.646;2023-04-25T09:40:42;99092.18;;;12.92;58.78
70338;BME280;57757;53.198;19.646;2023-04-25T09:43:19;99090.21;;;13.17;58.60
70338;BME280;57757;53.198;19.646;2023-04-25T09:45:49;99090.27;;;13.40;58.34
70338;BME280;57757;53.198;19.646;2023-04-25T09:48:20;99094.30;;;13.50;57.88
70338;BME280;57757;53.198;19.646;2023-04-25T09:53:38;99098.59;;;13.34;57.45
70338;BME280;57757;53.198;19.646;2023-04-25T09:56:08;99103.60;;;13.22;57.50
70338;BME280;57757;53.198;19.646;2023-04-25T09:58:38;99101.20;;;13.14;57.44
70338;BME280;57757;53.198;19.646;2023-04-25T10:01:08;99106.11;;;13.07;57.37
70338;BME280;57757;53.198;19.646;2023-04-25T10:03:38;99105.76;;;12.93;57.14
70338;BME280;57757;53.198;19.646;2023-04-25T10:06:19;99108.89;;;12.86;57.18
70338;BME280;57757;53.198;19.646;2023-04-25T10:08:51;99102.55;;;12.84;57.13
70338;BME280;57757;53.198;19.646;2023-04-25T10:11:20;99099.63;;;12.90;57.28
70338;BME280;57757;53.198;19.646;2023-04-25T10:13:50;99101.99;;;13.06;57.09
70338;BME280;57757;53.198;19.646;2023-04-25T10:16:24;99101.66;;;13.23;57.41
70338;BME280;57757;53.198;19.646;2023-04-25T10:18:52;99105.62;;;13.37;57.41
70338;BME280;57757;53.198;19.646;2023-04-25T10:21:21;99108.27;;;13.40;56.95
70338;BME280;57757;53.198;19.646;2023-04-25T10:23:49;99108.71;;;13.38;56.79
70338;BME280;57757;53.198;19.646;2023-04-25T10:26:18;99107.65;;;13.38;56.74
70338;BME280;57757;53.198;19.646;2023-04-25T10:29:03;99111.42;;;13.43;56.89
70338;BME280;57757;53.198;19.646;2023-04-25T10:31:31;99110.77;;;13.55;56.86
70338;BME280;57757;53.198;19.646;2023-04-25T10:34:00;99105.16;;;13.59;56.69
70338;BME280;57757;53.198;19.646;2023-04-25T10:36:31;99103.55;;;13.63;56.72
70338;BME280;57757;53.198;19.646;2023-04-25T10:39:04;99107.41;;;13.62;56.52
70338;BME280;57757;53.198;19.646;2023-04-25T10:41:47;99112.73;;;13.51;56.28
70338;BME280;57757;53.198;19.646;2023-04-25T10:44:15;99117.52;;;13.40;56.12
70338;BME280;57757;53.198;19.646;2023-04-25T10:46:44;99116.58;;;13.34;56.68
70338;BME280;57757;53.198;19.646;2023-04-25T10:52:17;99118.83;;;13.48;56.49
70338;BME280;57757;53.198;19.646;2023-04-25T11:00:04;99120.71;;;13.46;56.17
70338;BME280;57757;53.198;19.646;2023-04-25T11:02:46;99119.05;;;13.57;56.25
70338;BME280;57757;53.198;19.646;2023-04-25T11:08:20;99112.82;;;14.40;56.80
70338;BME280;57757;53.198;19.646;2023-04-25T11:10:53;99117.61;;;14.76;56.30
70338;BME280;57757;53.198;19.646;2023-04-25T11:13:22;99113.27;;;14.91;55.90
70338;BME280;57757;53.198;19.646;2023-04-25T11:15:51;99116.73;;;14.91;55.22
70338;BME280;57757;53.198;19.646;2023-04-25T11:18:41;99114.56;;;14.83;54.92
70338;BME280;57757;53.198;19.646;2023-04-25T11:21:10;99114.70;;;14.83;55.42
70338;BME280;57757;53.198;19.646;2023-04-25T11:23:38;99115.63;;;14.89;54.99
70338;BME280;57757;53.198;19.646;2023-04-25T11:26:06;99114.97;;;14.92;54.97
70338;BME280;57757;53.198;19.646;2023-04-25T11:28:35;99116.70;;;15.18;56.28
70338;BME280;57757;53.198;19.646;2023-04-25T11:31:04;99116.47;;;15.63;55.71
70338;BME280;57757;53.198;19.646;2023-04-25T11:33:31;99114.13;;;15.75;54.62
70338;BME280;57757;53.198;19.646;2023-04-25T11:35:59;99117.40;;;15.88;54.65
70338;BME280;57757;53.198;19.646;2023-04-25T11:38:27;99117.60;;;16.07;54.49
70338;BME280;57757;53.198;19.646;2023-04-25T11:40:56;99117.23;;;16.21;54.28
70338;BME280;57757;53.198;19.646;2023-04-25T11:43:25;99114.77;;;16.32;54.14
70338;BME280;57757;53.198;19.646;2023-04-25T11:45:53;99113.02;;;16.43;53.62
70338;BME280;57757;53.198;19.646;2023-04-25T11:48:21;99114.38;;;16.41;53.24
70338;BME280;57757;53.198;19.646;2023-04-25T11:51:08;99110.69;;;16.44;53.46
70338;BME280;57757;53.198;19.646;2023-04-25T11:53:36;99111.09;;;16.48;53.22
70338;BME280;57757;53.198;19.646;2023-04-25T11:56:11;99112.59;;;16.60;53.28
70338;BME280;57757;53.198;19.646;2023-04-25T11:58:58;99112.03;;;16.63;52.82
70338;BME280;57757;53.198;19.646;2023-04-25T12:01:33;99108.19;;;16.34;52.28
70338;BME280;57757;53.198;19.646;2023-04-25T12:04:21;99107.94;;;16.07;52.42
70338;BME280;57757;53.198;19.646;2023-04-25T12:06:54;99115.58;;;15.72;52.13
70338;BME280;57757;53.198;19.646;2023-04-25T12:09:31;99114.32;;;15.34;52.31
70338;BME280;57757;53.198;19.646;2023-04-25T12:12:00;99119.85;;;15.03;52.39
70338;BME280;57757;53.198;19.646;2023-04-25T12:14:35;99118.22;;;14.74;52.43
70338;BME280;57757;53.198;19.646;2023-04-25T12:17:04;99126.40;;;14.48;52.65
70338;BME280;57757;53.198;19.646;2023-04-25T12:19:37;99126.08;;;14.34;53.40
70338;BME280;57757;53.198;19.646;2023-04-25T12:22:24;99133.38;;;14.42;53.69
70338;BME280;57757;53.198;19.646;2023-04-25T12:24:52;99128.99;;;14.39;53.56
70338;BME280;57757;53.198;19.646;2023-04-25T12:27:25;99127.10;;;14.50;53.65
70338;BME280;57757;53.198;19.646;2023-04-25T12:29:55;99128.90;;;14.46;52.86
70338;BME280;57757;53.198;19.646;2023-04-25T12:32:23;99126.73;;;14.32;52.82
70338;BME280;57757;53.198;19.646;2023-04-25T12:34:51;99133.50;;;14.23;52.81
70338;BME280;57757;53.198;19.646;2023-04-25T12:37:19;99134.81;;;13.99;52.46
70338;BME280;57757;53.198;19.646;2023-04-25T12:39:46;99136.68;;;13.83;52.79
70338;BME280;57757;53.198;19.646;2023-04-25T12:42:14;99131.23;;;13.78;53.02
70338;BME280;57757;53.198;19.646;2023-04-25T12:44:42;99128.33;;;13.76;53.34
70338;BME280;57757;53.198;19.646;2023-04-25T12:47:11;99126.63;;;13.76;53.14
70338;BME280;57757;53.198;19.646;2023-04-25T12:49:39;99130.11;;;13.66;53.01
70338;BME280;57757;53.198;19.646;2023-04-25T12:52:10;99132.22;;;13.59;53.11
70338;BME280;57757;53.198;19.646;2023-04-25T12:54:40;99132.02;;;13.53;53.07
70338;BME280;57757;53.198;19.646;2023-04-25T12:57:08;99133.08;;;13.50;53.15
70338;BME280;57757;53.198;19.646;2023-04-25T12:59:35;99131.41;;;13.48;53.22
70338;BME280;57757;53.198;19.646;2023-04-25T13:02:03;99131.31;;;13.47;52.96
70338;BME280;57757;53.198;19.646;2023-04-25T13:04:32;99133.72;;;13.44;52.79
70338;BME280;57757;53.198;19.646;2023-04-25T13:07:01;99130.00;;;13.38;52.88
70338;BME280;57757;53.198;19.646;2023-04-25T13:09:28;99131.04;;;13.38;52.96
70338;BME280;57757;53.198;19.646;2023-04-25T13:11:56;99132.02;;;13.36;52.72
70338;BME280;57757;53.198;19.646;2023-04-25T13:14:26;99126.90;;;13.27;52.54
70338;BME280;57757;53.198;19.646;2023-04-25T13:16:54;99131.25;;;13.24;52.62
70338;BME280;57757;53.198;19.646;2023-04-25T13:19:22;99124.59;;;13.22;52.63
70338;BME280;57757;53.198;19.646;2023-04-25T13:21:49;99125.94;;;13.22;52.60